createdAt,value
2023-03-31T00:01:24.998Z,3.45
2023-03-31T00:04:02.078Z,4.28
2023-03-31T00:06:32.635Z,2.58
2023-03-31T00:09:02.059Z,3.50
2023-03-31T00:11:30.032Z,5.60
2023-03-31T00:13:57.962Z,4.15
2023-03-31T00:16:26.652Z,4.32
2023-03-31T00:18:55.397Z,4.63
2023-03-31T00:21:25.319Z,4.72
2023-03-31T00:23:57.009Z,4.78
2023-03-31T00:26:26.310Z,4.38
2023-03-31T00:28:55.076Z,2.13
2023-03-31T00:31:24.209Z,3.55
2023-03-31T00:33:51.928Z,5.30
2023-03-31T00:36:29.931Z,4.93
2023-03-31T00:39:02.527Z,4.20
2023-03-31T00:41:31.611Z,4.30
2023-03-31T00:44:13.230Z,2.78
2023-03-31T00:47:02.431Z,4.53
2023-03-31T00:49:58.007Z,4.88
2023-03-31T00:52:37.987Z,5.28
2023-03-31T00:55:14.047Z,2.20
2023-03-31T00:57:44.698Z,3.35
2023-03-31T01:00:18.832Z,2.37
2023-03-31T01:02:55.839Z,4.25
2023-03-31T01:05:31.308Z,4.75
2023-03-31T01:08:00.487Z,4.82
2023-03-31T01:10:30.183Z,2.42
2023-03-31T01:12:58.906Z,4.25
2023-03-31T01:15:27.067Z,2.72
2023-03-31T01:17:56.079Z,2.88
2023-03-31T01:20:27.335Z,3.17
2023-03-31T01:23:22.515Z,3.67
2023-03-31T01:26:28.468Z,2.53
2023-03-31T01:29:17.727Z,5.15
2023-03-31T01:31:51.100Z,4.55
2023-03-31T01:34:37.008Z,3.33
2023-03-31T01:37:53.393Z,3.45
2023-03-31T01:40:41.865Z,1.63
2023-03-31T01:43:26.473Z,4.82
2023-03-31T01:46:10.485Z,2.50
2023-03-31T01:49:21.084Z,3.30
2023-03-31T01:52:06.811Z,3.40
2023-03-31T01:55:04.002Z,3.80
2023-03-31T01:57:45.546Z,4.65
2023-03-31T02:00:18.227Z,4.22
2023-03-31T02:03:12.698Z,4.47
2023-03-31T02:05:51.585Z,4.35
2023-03-31T02:08:32.175Z,3.53
2023-03-31T02:11:00.919Z,7.05
2023-03-31T02:13:30.436Z,3.83
2023-03-31T02:16:06.892Z,1.73
2023-03-31T02:18:38.514Z,3.30
2023-03-31T02:21:08.812Z,2.70
2023-03-31T02:23:38.490Z,3.97
2023-03-31T02:26:31.323Z,3.42
2023-03-31T02:28:59.756Z,3.05
2023-03-31T02:32:09.897Z,2.35
2023-03-31T02:34:37.995Z,4.80
2023-03-31T02:37:06.569Z,2.97
2023-03-31T02:39:38.894Z,2.58
2023-03-31T02:42:09.980Z,4.13
2023-03-31T02:44:39.705Z,3.67
2023-03-31T02:47:15.530Z,3.20
2023-03-31T02:49:57.770Z,3.70
2023-03-31T02:53:30.889Z,4.95
2023-03-31T02:56:24.714Z,4.32
2023-03-31T02:59:10.464Z,5.30
2023-03-31T03:01:44.453Z,5.75
2023-03-31T03:04:26.905Z,4.05
2023-03-31T03:07:26.695Z,4.55
2023-03-31T03:10:10.438Z,6.00
2023-03-31T03:13:13.703Z,4.88
2023-03-31T03:16:24.520Z,5.50
2023-03-31T03:19:01.788Z,6.00
2023-03-31T03:21:30.863Z,3.58
2023-03-31T03:24:00.226Z,3.92
2023-03-31T03:26:28.567Z,4.13
2023-03-31T03:28:57.494Z,4.10
2023-03-31T03:31:25.953Z,2.35
2023-03-31T03:33:54.200Z,2.65
2023-03-31T03:36:23.093Z,2.03
2023-03-31T03:38:51.036Z,2.78
2023-03-31T03:41:18.791Z,4.25
2023-03-31T03:43:46.707Z,2.38
2023-03-31T03:46:14.517Z,3.60
2023-03-31T03:48:42.402Z,4.25
2023-03-31T03:51:10.431Z,4.05
2023-03-31T03:53:38.252Z,4.90
2023-03-31T03:56:06.739Z,4.55
2023-03-31T03:58:36.042Z,2.65
2023-03-31T04:01:04.303Z,5.57
2023-03-31T04:03:32.309Z,4.57
2023-03-31T04:06:00.149Z,3.33
2023-03-31T04:08:27.809Z,6.53
2023-03-31T04:10:55.851Z,3.90
2023-03-31T04:13:24.090Z,3.78
2023-03-31T04:15:53.037Z,4.75
2023-03-31T04:18:23.824Z,3.95
2023-03-31T04:21:05.629Z,3.47
2023-03-31T04:26:03.881Z,5.65
2023-03-31T04:28:34.895Z,6.07
2023-03-31T04:31:06.182Z,3.17
2023-03-31T04:33:34.187Z,3.60
2023-03-31T04:36:07.410Z,4.20
2023-03-31T04:38:35.545Z,3.70
2023-03-31T04:41:03.329Z,3.65
2023-03-31T04:43:31.233Z,4.68
2023-03-31T04:45:59.261Z,2.65
2023-03-31T04:48:27.250Z,1.95
2023-03-31T04:50:54.948Z,3.60
2023-03-31T04:53:22.983Z,4.25
2023-03-31T04:55:50.984Z,4.35
2023-03-31T04:58:19.871Z,4.35
2023-03-31T05:00:49.464Z,4.25
2023-03-31T05:03:19.629Z,3.33
2023-03-31T05:05:49.395Z,2.60
2023-03-31T05:08:17.293Z,6.18
2023-03-31T05:10:45.181Z,5.25
2023-03-31T05:13:12.888Z,4.18
2023-03-31T05:15:41.613Z,6.85
2023-03-31T05:18:09.300Z,3.67
2023-03-31T05:20:37.021Z,5.45
2023-03-31T05:23:04.777Z,6.75
2023-03-31T05:25:33.513Z,3.88
2023-03-31T05:28:02.446Z,2.25
2023-03-31T05:30:30.400Z,6.55
2023-03-31T05:32:58.205Z,4.13
2023-03-31T05:35:26.551Z,3.85
2023-03-31T05:37:54.727Z,3.78
2023-03-31T05:40:24.349Z,4.80
2023-03-31T05:42:52.104Z,4.20
2023-03-31T05:45:19.933Z,3.40
2023-03-31T05:47:47.855Z,5.53
2023-03-31T05:50:18.103Z,4.00
2023-03-31T05:52:46.426Z,5.43
2023-03-31T05:55:14.302Z,5.85
2023-03-31T05:57:42.007Z,5.07
2023-03-31T06:00:17.484Z,5.45
2023-03-31T06:02:47.086Z,5.38
2023-03-31T06:05:14.946Z,6.25
2023-03-31T06:07:42.824Z,4.72
2023-03-31T06:10:10.958Z,4.07
2023-03-31T06:12:38.861Z,4.57
2023-03-31T06:15:07.621Z,4.30
2023-03-31T06:17:38.722Z,5.72
2023-03-31T06:20:23.970Z,4.72
2023-03-31T06:22:55.887Z,7.10
2023-03-31T06:25:24.714Z,5.25
2023-03-31T06:27:52.600Z,5.63
2023-03-31T06:30:20.584Z,6.60
2023-03-31T06:32:51.298Z,6.10
2023-03-31T06:35:19.088Z,7.55
2023-03-31T06:37:46.765Z,4.18
2023-03-31T06:40:16.015Z,8.55
2023-03-31T06:42:44.230Z,5.55
2023-03-31T06:45:11.976Z,4.45
2023-03-31T06:47:41.434Z,5.47
2023-03-31T06:50:13.104Z,5.70
2023-03-31T06:52:40.941Z,4.22
2023-03-31T06:55:09.622Z,6.53
2023-03-31T06:57:37.763Z,5.10
2023-03-31T07:00:07.751Z,4.53
2023-03-31T07:02:37.534Z,6.50
2023-03-31T07:05:08.273Z,5.15
2023-03-31T07:07:43.285Z,6.40
2023-03-31T07:10:15.006Z,4.22
2023-03-31T07:12:43.848Z,7.53
2023-03-31T07:15:11.787Z,5.40
2023-03-31T07:17:42.274Z,6.03
2023-03-31T07:20:15.044Z,4.72
2023-03-31T07:22:47.839Z,6.57
2023-03-31T07:25:17.941Z,5.00
2023-03-31T07:27:45.737Z,5.10
2023-03-31T07:30:20.067Z,4.32
2023-03-31T07:32:50.271Z,3.85
2023-03-31T07:35:19.950Z,3.05
2023-03-31T07:37:49.688Z,4.45
2023-03-31T07:40:30.981Z,2.25
2023-03-31T07:45:29.630Z,2.67
2023-03-31T07:47:57.556Z,3.65
2023-03-31T07:50:25.421Z,2.85
2023-03-31T07:52:57.130Z,2.00
2023-03-31T07:55:30.718Z,4.05
2023-03-31T07:58:01.611Z,1.80
2023-03-31T08:00:32.920Z,1.50
2023-03-31T08:03:01.136Z,2.28
2023-03-31T08:05:29.028Z,2.00
2023-03-31T08:07:56.680Z,2.22
2023-03-31T08:10:28.738Z,2.95
2023-03-31T08:12:56.610Z,3.13
2023-03-31T08:15:26.126Z,2.55
2023-03-31T08:17:54.047Z,2.22
2023-03-31T08:20:25.018Z,2.78
2023-03-31T08:22:53.604Z,2.83
2023-03-31T08:25:22.153Z,2.60
2023-03-31T08:27:51.593Z,1.80
2023-03-31T08:30:20.557Z,1.77
2023-03-31T08:32:50.783Z,1.25
2023-03-31T08:35:20.523Z,3.47
2023-03-31T08:37:48.470Z,1.75
2023-03-31T08:40:23.804Z,3.90
2023-03-31T08:43:00.580Z,1.52
2023-03-31T08:45:39.665Z,2.53
2023-03-31T08:48:29.805Z,2.38
2023-03-31T08:51:21.720Z,2.50
2023-03-31T08:54:08.267Z,2.53
2023-03-31T08:56:44.407Z,3.63
2023-03-31T08:59:40.607Z,3.38
2023-03-31T09:02:40.114Z,2.55
2023-03-31T09:06:08.396Z,2.70
2023-03-31T09:08:44.797Z,2.92
2023-03-31T09:11:38.298Z,3.05
2023-03-31T09:14:30.332Z,2.35
2023-03-31T09:17:26.442Z,2.75
2023-03-31T09:20:09.834Z,2.38
2023-03-31T09:23:25.541Z,2.15
2023-03-31T09:25:55.531Z,6.13
2023-03-31T09:28:40.594Z,3.38
2023-03-31T09:31:16.362Z,3.05
2023-03-31T09:33:49.479Z,3.70
2023-03-31T09:36:24.925Z,4.97
2023-03-31T09:38:57.543Z,5.55
2023-03-31T09:41:26.044Z,4.93
2023-03-31T09:43:53.839Z,2.50
2023-03-31T09:46:35.432Z,3.22
2023-03-31T09:49:19.809Z,3.95
2023-03-31T09:52:01.626Z,3.38
2023-03-31T09:54:43.981Z,2.60
2023-03-31T09:57:35.079Z,4.15
2023-03-31T10:00:17.827Z,5.65
2023-03-31T10:02:56.148Z,3.30
2023-03-31T10:05:36.559Z,3.92
2023-03-31T10:08:23.703Z,5.00
2023-03-31T10:10:56.891Z,3.45
2023-03-31T10:13:35.668Z,7.78
2023-03-31T10:16:14.689Z,5.88
2023-03-31T10:18:43.667Z,6.13
2023-03-31T10:21:27.198Z,3.08
2023-03-31T10:23:56.256Z,6.25
2023-03-31T10:26:28.662Z,5.55
2023-03-31T10:28:58.906Z,4.50
2023-03-31T10:31:35.620Z,4.97
2023-03-31T10:34:16.975Z,3.03
2023-03-31T10:36:53.663Z,3.75
2023-03-31T10:39:31.055Z,5.13
2023-03-31T10:42:01.143Z,3.88
2023-03-31T10:44:35.459Z,5.10
2023-03-31T10:47:22.076Z,4.32
2023-03-31T10:49:57.816Z,6.70
2023-03-31T10:52:49.372Z,3.77
2023-03-31T10:55:30.083Z,1.75
2023-03-31T10:59:10.418Z,3.28
2023-03-31T11:01:48.137Z,1.95
2023-03-31T11:04:40.632Z,2.40
2023-03-31T11:07:45.534Z,5.63
2023-03-31T11:10:28.300Z,2.90
2023-03-31T11:13:17.470Z,4.15
2023-03-31T11:16:22.841Z,3.50
2023-03-31T11:18:56.523Z,4.00
2023-03-31T11:21:43.631Z,3.55
2023-03-31T11:24:57.896Z,2.08
2023-03-31T11:28:08.707Z,3.22
2023-03-31T11:31:03.318Z,0.98
2023-03-31T11:34:08.878Z,2.20
2023-03-31T11:36:59.585Z,2.53
2023-03-31T11:39:40.794Z,3.78
2023-03-31T11:42:18.267Z,2.05
2023-03-31T11:44:54.948Z,3.17
2023-03-31T11:47:33.027Z,1.48
2023-03-31T11:50:17.456Z,1.83
2023-03-31T11:53:06.255Z,1.77
2023-03-31T11:55:35.763Z,1.35
2023-03-31T11:58:16.023Z,1.10
2023-03-31T12:01:05.218Z,1.30
2023-03-31T12:04:01.854Z,1.52
2023-03-31T12:06:43.006Z,1.13
2023-03-31T12:09:29.536Z,1.85
2023-03-31T12:12:18.648Z,1.58
2023-03-31T12:15:13.556Z,0.70
2023-03-31T12:17:49.457Z,1.70
2023-03-31T12:20:55.614Z,0.98
2023-03-31T12:23:33.088Z,2.47
2023-03-31T12:26:59.477Z,1.15
2023-03-31T12:29:39.554Z,0.98
2023-03-31T12:32:24.064Z,1.45
2023-03-31T12:35:00.317Z,1.60
2023-03-31T12:38:05.802Z,2.38
2023-03-31T12:40:41.235Z,3.95
2023-03-31T12:43:47.095Z,1.23
2023-03-31T12:47:15.162Z,2.50
2023-03-31T12:50:40.010Z,1.77
2023-03-31T12:53:36.244Z,1.60
2023-03-31T12:56:04.487Z,1.58
2023-03-31T12:58:37.388Z,1.98
2023-03-31T13:01:17.621Z,1.70
2023-03-31T13:04:07.036Z,1.15
2023-03-31T13:06:37.650Z,2.63
2023-03-31T13:09:37.723Z,1.75
2023-03-31T13:12:16.200Z,1.13
2023-03-31T13:14:47.807Z,1.40
2023-03-31T13:17:26.455Z,2.10
2023-03-31T13:19:56.201Z,4.22
2023-03-31T13:22:36.219Z,3.65
2023-03-31T13:25:33.387Z,1.73
2023-03-31T13:28:13.908Z,1.40
2023-03-31T13:30:41.622Z,1.98
2023-03-31T13:33:40.662Z,0.50
2023-03-31T13:36:58.366Z,1.58
2023-03-31T13:39:56.285Z,2.15
2023-03-31T13:42:51.596Z,1.17
2023-03-31T13:46:15.697Z,1.77
2023-03-31T13:49:25.721Z,1.35
2023-03-31T13:52:03.901Z,2.35
2023-03-31T13:55:05.092Z,2.40
2023-03-31T13:58:24.971Z,1.55
2023-03-31T14:01:27.720Z,1.42
2023-03-31T14:04:49.839Z,2.05
2023-03-31T14:07:31.754Z,1.38
2023-03-31T14:09:59.809Z,1.95
2023-03-31T14:12:35.779Z,2.83
2023-03-31T14:15:07.089Z,1.45
2023-03-31T14:17:41.111Z,2.10
2023-03-31T14:20:29.416Z,1.60
2023-03-31T14:23:40.098Z,1.95
2023-03-31T14:27:31.008Z,5.15
2023-03-31T14:30:27.247Z,1.90
2023-03-31T14:33:26.898Z,1.50
2023-03-31T14:36:47.493Z,1.95
2023-03-31T14:39:21.822Z,1.90
2023-03-31T14:41:55.549Z,2.65
2023-03-31T14:44:26.435Z,3.78
2023-03-31T14:46:58.346Z,1.55
2023-03-31T14:49:36.886Z,3.28
2023-03-31T14:52:25.682Z,1.63
2023-03-31T14:54:53.851Z,1.65
2023-03-31T14:57:32.857Z,1.20
2023-03-31T15:00:06.247Z,2.47
2023-03-31T15:02:41.709Z,1.35
2023-03-31T15:05:24.242Z,1.05
2023-03-31T15:07:52.340Z,3.08
2023-03-31T15:10:22.082Z,1.05
2023-03-31T15:12:51.716Z,0.77
2023-03-31T15:15:21.113Z,0.63
2023-03-31T15:17:49.136Z,1.33
2023-03-31T15:20:31.797Z,1.92
2023-03-31T15:23:18.677Z,1.48
2023-03-31T15:25:46.791Z,0.80
2023-03-31T15:28:17.884Z,2.33
2023-03-31T15:30:50.383Z,2.15
2023-03-31T15:33:36.587Z,1.52
2023-03-31T15:36:04.972Z,1.08
2023-03-31T15:38:32.941Z,2.03
2023-03-31T15:41:03.267Z,2.00
2023-03-31T15:43:47.830Z,1.95
2023-03-31T15:46:44.719Z,2.85
2023-03-31T15:49:24.288Z,2.28
2023-03-31T15:51:56.929Z,2.67
2023-03-31T15:54:42.657Z,1.85
2023-03-31T15:57:22.084Z,2.00
2023-03-31T15:59:56.697Z,2.53
2023-03-31T16:02:46.980Z,1.70
2023-03-31T16:05:53.528Z,2.28
2023-03-31T16:08:48.526Z,2.25
2023-03-31T16:11:35.818Z,1.40
2023-03-31T16:14:56.984Z,3.20
2023-03-31T16:17:34.392Z,1.00
2023-03-31T16:20:16.754Z,1.33
2023-03-31T16:22:50.284Z,1.70
2023-03-31T16:25:24.024Z,0.82
2023-03-31T16:27:57.004Z,1.63
2023-03-31T16:30:44.912Z,2.05
2023-03-31T16:33:54.790Z,1.45
2023-03-31T16:36:42.873Z,1.02
2023-03-31T16:39:10.845Z,1.35
2023-03-31T16:41:39.553Z,0.95
2023-03-31T16:44:08.853Z,0.93
2023-03-31T16:46:39.453Z,1.40
2023-03-31T16:49:07.433Z,0.75
2023-03-31T16:51:35.322Z,1.63
2023-03-31T16:54:03.404Z,0.60
2023-03-31T16:56:31.504Z,1.38
2023-03-31T16:58:59.218Z,0.88
2023-03-31T17:01:27.179Z,2.15
2023-03-31T17:03:57.438Z,1.00
2023-03-31T17:06:25.429Z,2.15
2023-03-31T17:08:54.707Z,1.95
2023-03-31T17:11:23.729Z,1.52
2023-03-31T17:13:52.651Z,3.85
2023-03-31T17:16:32.952Z,2.45
2023-03-31T17:19:13.671Z,2.58
2023-03-31T17:21:41.936Z,0.73
2023-03-31T17:24:11.424Z,1.02
2023-03-31T17:26:39.510Z,1.48
2023-03-31T17:29:07.388Z,0.63
2023-03-31T17:31:37.377Z,0.70
2023-03-31T17:34:06.858Z,0.50
2023-03-31T17:36:34.720Z,0.95
2023-03-31T17:39:05.094Z,0.95
2023-03-31T17:41:33.009Z,1.02
2023-03-31T17:44:01.204Z,1.77
2023-03-31T17:46:29.064Z,1.63
2023-03-31T17:48:58.427Z,2.35
2023-03-31T17:51:27.670Z,1.20
2023-03-31T17:53:56.415Z,2.67
2023-03-31T17:56:24.783Z,1.58
2023-03-31T17:58:53.676Z,1.35
2023-03-31T18:01:21.728Z,0.75
2023-03-31T18:03:49.643Z,1.27
2023-03-31T18:06:17.731Z,2.55
2023-03-31T18:08:47.325Z,1.73
2023-03-31T18:11:15.578Z,2.10
2023-03-31T18:13:43.635Z,1.77
2023-03-31T18:16:13.231Z,2.97
2023-03-31T18:18:45.150Z,2.00
2023-03-31T18:21:14.247Z,2.03
2023-03-31T18:23:48.356Z,1.85
2023-03-31T18:26:16.425Z,3.42
2023-03-31T18:28:44.132Z,2.03
2023-03-31T18:31:13.097Z,3.28
2023-03-31T18:33:42.535Z,1.52
2023-03-31T18:36:18.760Z,1.80
2023-03-31T18:38:48.324Z,2.30
2023-03-31T18:41:19.422Z,3.65
2023-03-31T18:43:47.820Z,2.10
2023-03-31T18:46:17.257Z,0.93
2023-03-31T18:48:46.269Z,1.20
2023-03-31T18:51:14.977Z,2.28
2023-03-31T18:53:44.062Z,1.35
2023-03-31T18:56:12.858Z,1.95
2023-03-31T18:58:40.679Z,2.08
2023-03-31T19:01:08.564Z,0.93
2023-03-31T19:03:36.504Z,2.08
2023-03-31T19:06:11.050Z,1.58
2023-03-31T19:08:44.314Z,1.52
2023-03-31T19:11:15.665Z,3.65
2023-03-31T19:13:44.475Z,3.20
2023-03-31T19:16:14.356Z,2.38
2023-03-31T19:18:43.606Z,2.00
2023-03-31T19:21:12.039Z,0.63
2023-03-31T19:23:40.115Z,1.40
2023-03-31T19:26:08.995Z,0.50
2023-03-31T19:28:37.404Z,0.98
2023-03-31T19:31:05.743Z,2.55
2023-03-31T19:33:35.603Z,2.65
2023-03-31T19:36:03.946Z,2.63
2023-03-31T19:38:34.931Z,2.13
2023-03-31T19:41:05.077Z,2.15
2023-03-31T19:43:33.815Z,1.33
2023-03-31T19:46:02.304Z,3.10
2023-03-31T19:48:33.694Z,1.80
2023-03-31T19:51:06.543Z,0.60
2023-03-31T19:53:37.132Z,2.40
2023-03-31T19:56:09.372Z,1.23
2023-03-31T19:58:37.792Z,1.13
2023-03-31T20:01:18.009Z,2.60
2023-03-31T20:03:46.846Z,1.25
2023-03-31T20:06:16.284Z,1.67
2023-03-31T20:08:44.301Z,3.28
2023-03-31T20:11:16.070Z,2.67
2023-03-31T20:13:44.367Z,2.17
2023-03-31T20:16:19.033Z,2.55
2023-03-31T20:19:01.456Z,3.17
2023-03-31T20:21:35.389Z,2.05
2023-03-31T20:24:04.605Z,2.05
2023-03-31T20:26:34.196Z,3.35
2023-03-31T20:29:03.680Z,4.28
2023-03-31T20:31:39.075Z,2.00
2023-03-31T20:34:13.983Z,3.22
2023-03-31T20:36:45.520Z,3.45
2023-03-31T20:41:43.743Z,2.15
2023-03-31T20:44:15.542Z,2.20
2023-03-31T20:46:45.443Z,3.72
2023-03-31T20:49:14.016Z,2.63
2023-03-31T20:51:42.531Z,3.33
2023-03-31T20:54:10.748Z,1.75
2023-03-31T20:56:41.342Z,4.38
2023-03-31T20:59:15.392Z,1.45
2023-03-31T21:01:45.298Z,1.92
2023-03-31T21:04:13.912Z,3.95
2023-03-31T21:06:45.330Z,2.88
2023-03-31T21:09:17.303Z,2.55
2023-03-31T21:11:45.769Z,1.70
2023-03-31T21:14:16.353Z,2.75
2023-03-31T21:16:45.064Z,4.70
2023-03-31T21:19:13.009Z,3.25
2023-03-31T21:21:41.812Z,3.47
2023-03-31T21:24:12.501Z,2.08
2023-03-31T21:26:40.803Z,2.17
2023-03-31T21:29:08.508Z,3.20
2023-03-31T21:31:36.560Z,1.55
2023-03-31T21:34:05.231Z,4.13
2023-03-31T21:36:33.204Z,2.15
2023-03-31T21:39:01.272Z,1.52
2023-03-31T21:41:31.299Z,1.55
2023-03-31T21:44:01.739Z,4.03
2023-03-31T21:46:33.545Z,5.35
2023-03-31T21:49:02.735Z,1.77
2023-03-31T21:51:30.579Z,2.65
2023-03-31T21:53:58.454Z,2.50
2023-03-31T21:56:28.301Z,2.95
2023-03-31T21:59:01.174Z,1.52
2023-03-31T22:01:29.801Z,1.92
2023-03-31T22:03:59.158Z,1.92
2023-03-31T22:06:27.141Z,1.05
2023-03-31T22:08:54.949Z,1.92
2023-03-31T22:11:23.575Z,3.15
2023-03-31T22:13:51.410Z,1.23
2023-03-31T22:16:22.142Z,1.80
2023-03-31T22:18:51.555Z,2.53
2023-03-31T22:21:25.892Z,1.13
2023-03-31T22:23:59.160Z,2.97
2023-03-31T22:26:29.794Z,1.17
2023-03-31T22:28:58.778Z,0.88
2023-03-31T22:31:46.544Z,3.38
2023-03-31T22:34:15.473Z,1.58
2023-03-31T22:36:43.213Z,1.55
2023-03-31T22:39:11.198Z,1.88
2023-03-31T22:41:39.100Z,0.65
2023-03-31T22:44:07.694Z,1.73
2023-03-31T22:46:36.976Z,1.15
2023-03-31T22:49:05.818Z,2.25
2023-03-31T22:51:34.758Z,1.65
2023-03-31T22:54:02.771Z,1.98
2023-03-31T22:56:30.906Z,1.55
2023-03-31T22:59:00.446Z,0.63
2023-03-31T23:01:28.518Z,1.58
2023-03-31T23:03:56.561Z,1.40
2023-03-31T23:06:24.506Z,2.42
2023-03-31T23:08:52.484Z,1.33
2023-03-31T23:11:20.887Z,0.88
2023-03-31T23:13:48.793Z,3.17
2023-03-31T23:16:23.341Z,1.40
2023-03-31T23:18:54.226Z,0.50
2023-03-31T23:21:26.138Z,0.63
2023-03-31T23:23:58.655Z,0.93
2023-03-31T23:26:27.836Z,1.85
2023-03-31T23:28:57.352Z,6.32
2023-03-31T23:31:29.260Z,1.88
2023-03-31T23:34:00.828Z,2.45
2023-03-31T23:36:29.214Z,2.70
2023-03-31T23:38:57.247Z,1.98
2023-03-31T23:41:27.062Z,2.42
2023-03-31T23:43:57.528Z,1.98
2023-03-31T23:46:26.067Z,2.42
2023-03-31T23:48:54.184Z,1.30
2023-03-31T23:51:21.921Z,2.22
2023-03-31T23:53:50.171Z,2.15
2023-03-31T23:56:18.347Z,1.85
2023-03-31T23:58:47.178Z,1.08
